sensor_id;sensor_type;location;lat;lon;timestamp;P1;durP1;ratioP1;P2;durP2;ratioP2
17310;SDS011;8773;43.300;0.394;2023-02-28T00:01:08;14.23;;;12.90;;
17310;SDS011;8773;43.300;0.394;2023-02-28T00:03:36;12.97;;;11.87;;
17310;SDS011;8773;43.300;0.394;2023-02-28T00:06:05;11.83;;;10.83;;
17310;SDS011;8773;43.300;0.394;2023-02-28T00:08:35;12.20;;;11.30;;
17310;SDS011;8773;43.300;0.394;2023-02-28T00:11:04;11.40;;;10.50;;
17310;SDS011;8773;43.300;0.394;2023-02-28T00:13:38;11.57;;;10.57;;
17310;SDS011;8773;43.300;0.394;2023-02-28T00:16:11;11.97;;;10.97;;
17310;SDS011;8773;43.300;0.394;2023-02-28T00:18:41;11.87;;;10.77;;
17310;SDS011;8773;43.300;0.394;2023-02-28T00:21:09;11.10;;;10.30;;
17310;SDS011;8773;43.300;0.394;2023-02-28T00:23:38;10.67;;;9.83;;
17310;SDS011;8773;43.300;0.394;2023-02-28T00:26:06;10.70;;;9.80;;
17310;SDS011;8773;43.300;0.394;2023-02-28T00:28:34;11.03;;;10.13;;
17310;SDS011;8773;43.300;0.394;2023-02-28T00:31:02;11.57;;;10.67;;
17310;SDS011;8773;43.300;0.394;2023-02-28T00:33:32;11.57;;;10.57;;
17310;SDS011;8773;43.300;0.394;2023-02-28T00:36:01;11.27;;;10.37;;
17310;SDS011;8773;43.300;0.394;2023-02-28T00:38:31;11.83;;;10.87;;
17310;SDS011;8773;43.300;0.394;2023-02-28T00:40:59;10.70;;;9.90;;
17310;SDS011;8773;43.300;0.394;2023-02-28T00:43:32;11.03;;;10.23;;
17310;SDS011;8773;43.300;0.394;2023-02-28T00:46:00;10.47;;;9.70;;
17310;SDS011;8773;43.300;0.394;2023-02-28T00:48:28;10.37;;;9.57;;
17310;SDS011;8773;43.300;0.394;2023-02-28T00:50:58;11.53;;;10.53;;
17310;SDS011;8773;43.300;0.394;2023-02-28T00:53:26;8.67;;;8.03;;
17310;SDS011;8773;43.300;0.394;2023-02-28T00:55:55;9.93;;;8.93;;
17310;SDS011;8773;43.300;0.394;2023-02-28T00:58:23;8.87;;;8.17;;
17310;SDS011;8773;43.300;0.394;2023-02-28T01:00:51;8.63;;;8.13;;
17310;SDS011;8773;43.300;0.394;2023-02-28T01:03:20;8.03;;;7.53;;
17310;SDS011;8773;43.300;0.394;2023-02-28T01:05:50;8.47;;;7.90;;
17310;SDS011;8773;43.300;0.394;2023-02-28T01:08:21;8.73;;;8.03;;
17310;SDS011;8773;43.300;0.394;2023-02-28T01:10:49;7.97;;;7.47;;
17310;SDS011;8773;43.300;0.394;2023-02-28T01:13:17;8.50;;;7.93;;
17310;SDS011;8773;43.300;0.394;2023-02-28T01:15:48;8.23;;;7.63;;
17310;SDS011;8773;43.300;0.394;2023-02-28T01:18:18;8.73;;;8.13;;
17310;SDS011;8773;43.300;0.394;2023-02-28T01:20:47;8.17;;;7.57;;
17310;SDS011;8773;43.300;0.394;2023-02-28T01:23:15;7.93;;;7.43;;
17310;SDS011;8773;43.300;0.394;2023-02-28T01:25:44;8.27;;;7.67;;
17310;SDS011;8773;43.300;0.394;2023-02-28T01:28:13;7.47;;;7.07;;
17310;SDS011;8773;43.300;0.394;2023-02-28T01:30:41;8.83;;;8.23;;
17310;SDS011;8773;43.300;0.394;2023-02-28T01:33:09;7.90;;;7.50;;
17310;SDS011;8773;43.300;0.394;2023-02-28T01:35:37;7.80;;;7.30;;
17310;SDS011;8773;43.300;0.394;2023-02-28T01:38:05;8.47;;;7.97;;
17310;SDS011;8773;43.300;0.394;2023-02-28T01:40:52;7.87;;;7.37;;
17310;SDS011;8773;43.300;0.394;2023-02-28T01:43:21;7.80;;;7.30;;
17310;SDS011;8773;43.300;0.394;2023-02-28T01:45:51;7.80;;;7.20;;
17310;SDS011;8773;43.300;0.394;2023-02-28T01:48:21;7.90;;;7.30;;
17310;SDS011;8773;43.300;0.394;2023-02-28T01:50:53;7.90;;;7.40;;
17310;SDS011;8773;43.300;0.394;2023-02-28T01:53:27;8.00;;;7.50;;
17310;SDS011;8773;43.300;0.394;2023-02-28T01:56:01;8.10;;;7.50;;
17310;SDS011;8773;43.300;0.394;2023-02-28T01:58:34;7.80;;;7.30;;
17310;SDS011;8773;43.300;0.394;2023-02-28T02:01:03;7.73;;;7.27;;
17310;SDS011;8773;43.300;0.394;2023-02-28T02:03:32;8.03;;;7.43;;
17310;SDS011;8773;43.300;0.394;2023-02-28T02:06:03;7.60;;;7.20;;
17310;SDS011;8773;43.300;0.394;2023-02-28T02:08:31;7.53;;;7.03;;
17310;SDS011;8773;43.300;0.394;2023-02-28T02:11:01;7.70;;;7.20;;
17310;SDS011;8773;43.300;0.394;2023-02-28T02:13:34;7.63;;;7.13;;
17310;SDS011;8773;43.300;0.394;2023-02-28T02:16:27;7.40;;;7.00;;
17310;SDS011;8773;43.300;0.394;2023-02-28T02:19:06;7.67;;;7.07;;
17310;SDS011;8773;43.300;0.394;2023-02-28T02:22:02;7.70;;;7.10;;
17310;SDS011;8773;43.300;0.394;2023-02-28T02:24:55;6.83;;;6.33;;
17310;SDS011;8773;43.300;0.394;2023-02-28T02:27:42;7.03;;;6.53;;
17310;SDS011;8773;43.300;0.394;2023-02-28T02:33:40;7.00;;;6.43;;
17310;SDS011;8773;43.300;0.394;2023-02-28T02:36:34;7.30;;;6.67;;
17310;SDS011;8773;43.300;0.394;2023-02-28T02:39:08;7.03;;;6.63;;
17310;SDS011;8773;43.300;0.394;2023-02-28T02:41:45;6.60;;;6.17;;
17310;SDS011;8773;43.300;0.394;2023-02-28T02:44:18;6.90;;;6.50;;
17310;SDS011;8773;43.300;0.394;2023-02-28T02:46:51;6.50;;;6.00;;
17310;SDS011;8773;43.300;0.394;2023-02-28T02:49:24;6.00;;;5.70;;
17310;SDS011;8773;43.300;0.394;2023-02-28T02:51:56;5.47;;;5.13;;
17310;SDS011;8773;43.300;0.394;2023-02-28T02:54:28;6.47;;;6.10;;
17310;SDS011;8773;43.300;0.394;2023-02-28T02:57:03;5.57;;;5.27;;
17310;SDS011;8773;43.300;0.394;2023-02-28T02:59:35;6.03;;;5.57;;
17310;SDS011;8773;43.300;0.394;2023-02-28T03:02:06;6.93;;;6.40;;
17310;SDS011;8773;43.300;0.394;2023-02-28T03:04:39;6.07;;;5.67;;
17310;SDS011;8773;43.300;0.394;2023-02-28T03:07:11;6.10;;;5.80;;
17310;SDS011;8773;43.300;0.394;2023-02-28T03:09:39;6.70;;;6.30;;
17310;SDS011;8773;43.300;0.394;2023-02-28T03:12:09;6.57;;;6.17;;
17310;SDS011;8773;43.300;0.394;2023-02-28T03:14:43;6.47;;;6.10;;
17310;SDS011;8773;43.300;0.394;2023-02-28T03:17:29;6.37;;;5.97;;
17310;SDS011;8773;43.300;0.394;2023-02-28T03:20:09;6.87;;;6.47;;
17310;SDS011;8773;43.300;0.394;2023-02-28T03:22:50;6.27;;;5.87;;
17310;SDS011;8773;43.300;0.394;2023-02-28T03:25:27;7.63;;;7.13;;
17310;SDS011;8773;43.300;0.394;2023-02-28T03:28:04;7.80;;;7.30;;
17310;SDS011;8773;43.300;0.394;2023-02-28T03:30:45;7.43;;;6.93;;
17310;SDS011;8773;43.300;0.394;2023-02-28T03:33:21;6.53;;;6.23;;
17310;SDS011;8773;43.300;0.394;2023-02-28T03:35:55;7.23;;;6.83;;
17310;SDS011;8773;43.300;0.394;2023-02-28T03:38:28;6.87;;;6.33;;
17310;SDS011;8773;43.300;0.394;2023-02-28T03:41:02;7.07;;;6.57;;
17310;SDS011;8773;43.300;0.394;2023-02-28T03:43:34;6.10;;;5.70;;
17310;SDS011;8773;43.300;0.394;2023-02-28T03:46:06;6.20;;;5.67;;
17310;SDS011;8773;43.300;0.394;2023-02-28T03:48:38;5.63;;;5.33;;
17310;SDS011;8773;43.300;0.394;2023-02-28T03:51:12;5.73;;;5.43;;
17310;SDS011;8773;43.300;0.394;2023-02-28T03:53:44;5.10;;;4.80;;
17310;SDS011;8773;43.300;0.394;2023-02-28T03:56:18;5.73;;;5.43;;
17310;SDS011;8773;43.300;0.394;2023-02-28T03:58:49;5.87;;;5.57;;
17310;SDS011;8773;43.300;0.394;2023-02-28T04:01:24;6.50;;;6.20;;
17310;SDS011;8773;43.300;0.394;2023-02-28T04:03:56;6.50;;;6.20;;
17310;SDS011;8773;43.300;0.394;2023-02-28T04:06:25;5.63;;;5.33;;
17310;SDS011;8773;43.300;0.394;2023-02-28T04:08:54;6.13;;;5.83;;
17310;SDS011;8773;43.300;0.394;2023-02-28T04:11:23;5.93;;;5.63;;
17310;SDS011;8773;43.300;0.394;2023-02-28T04:13:55;6.17;;;5.77;;
17310;SDS011;8773;43.300;0.394;2023-02-28T04:16:24;5.33;;;5.03;;
17310;SDS011;8773;43.300;0.394;2023-02-28T04:19:00;5.60;;;5.30;;
17310;SDS011;8773;43.300;0.394;2023-02-28T04:21:31;5.60;;;5.30;;
17310;SDS011;8773;43.300;0.394;2023-02-28T04:24:00;5.77;;;5.47;;
17310;SDS011;8773;43.300;0.394;2023-02-28T04:26:29;5.77;;;5.47;;
17310;SDS011;8773;43.300;0.394;2023-02-28T04:28:58;5.70;;;5.40;;
17310;SDS011;8773;43.300;0.394;2023-02-28T04:31:26;6.40;;;6.00;;
17310;SDS011;8773;43.300;0.394;2023-02-28T04:33:55;6.30;;;5.90;;
17310;SDS011;8773;43.300;0.394;2023-02-28T04:36:23;5.60;;;5.30;;
17310;SDS011;8773;43.300;0.394;2023-02-28T04:38:53;5.70;;;5.40;;
17310;SDS011;8773;43.300;0.394;2023-02-28T04:41:21;5.67;;;5.37;;
17310;SDS011;8773;43.300;0.394;2023-02-28T04:43:50;5.67;;;5.37;;
17310;SDS011;8773;43.300;0.394;2023-02-28T04:46:18;5.97;;;5.57;;
17310;SDS011;8773;43.300;0.394;2023-02-28T04:48:47;5.67;;;5.37;;
17310;SDS011;8773;43.300;0.394;2023-02-28T04:51:17;5.93;;;5.53;;
17310;SDS011;8773;43.300;0.394;2023-02-28T04:53:46;5.93;;;5.53;;
17310;SDS011;8773;43.300;0.394;2023-02-28T04:56:17;5.30;;;5.00;;
17310;SDS011;8773;43.300;0.394;2023-02-28T04:58:45;5.13;;;4.93;;
17310;SDS011;8773;43.300;0.394;2023-02-28T05:01:18;5.20;;;4.90;;
17310;SDS011;8773;43.300;0.394;2023-02-28T05:03:48;5.50;;;5.20;;
17310;SDS011;8773;43.300;0.394;2023-02-28T05:06:18;5.00;;;4.70;;
17310;SDS011;8773;43.300;0.394;2023-02-28T05:08:47;5.50;;;5.10;;
17310;SDS011;8773;43.300;0.394;2023-02-28T05:11:18;5.07;;;4.80;;
17310;SDS011;8773;43.300;0.394;2023-02-28T05:13:47;5.67;;;5.13;;
17310;SDS011;8773;43.300;0.394;2023-02-28T05:16:16;4.63;;;4.43;;
17310;SDS011;8773;43.300;0.394;2023-02-28T05:18:45;5.47;;;5.17;;
17310;SDS011;8773;43.300;0.394;2023-02-28T05:21:22;5.87;;;5.57;;
17310;SDS011;8773;43.300;0.394;2023-02-28T05:23:52;5.80;;;5.50;;
17310;SDS011;8773;43.300;0.394;2023-02-28T05:26:23;5.10;;;4.90;;
17310;SDS011;8773;43.300;0.394;2023-02-28T05:28:51;5.53;;;5.07;;
17310;SDS011;8773;43.300;0.394;2023-02-28T05:31:21;4.83;;;4.57;;
17310;SDS011;8773;43.300;0.394;2023-02-28T05:33:49;5.60;;;5.30;;
17310;SDS011;8773;43.300;0.394;2023-02-28T05:36:18;5.13;;;4.83;;
17310;SDS011;8773;43.300;0.394;2023-02-28T05:38:46;5.37;;;5.07;;
17310;SDS011;8773;43.300;0.394;2023-02-28T05:41:15;5.27;;;5.07;;
17310;SDS011;8773;43.300;0.394;2023-02-28T05:43:45;5.53;;;5.13;;
17310;SDS011;8773;43.300;0.394;2023-02-28T05:46:13;5.33;;;5.03;;
17310;SDS011;8773;43.300;0.394;2023-02-28T05:48:42;5.77;;;5.47;;
17310;SDS011;8773;43.300;0.394;2023-02-28T05:51:13;5.13;;;4.83;;
17310;SDS011;8773;43.300;0.394;2023-02-28T05:53:41;5.67;;;5.30;;
17310;SDS011;8773;43.300;0.394;2023-02-28T05:56:09;5.40;;;5.10;;
17310;SDS011;8773;43.300;0.394;2023-02-28T05:58:38;5.37;;;5.07;;
17310;SDS011;8773;43.300;0.394;2023-02-28T06:01:20;5.77;;;5.47;;
17310;SDS011;8773;43.300;0.394;2023-02-28T06:03:50;5.70;;;5.27;;
17310;SDS011;8773;43.300;0.394;2023-02-28T06:06:19;5.20;;;4.97;;
17310;SDS011;8773;43.300;0.394;2023-02-28T06:08:47;5.67;;;5.30;;
17310;SDS011;8773;43.300;0.394;2023-02-28T06:11:15;5.63;;;5.23;;
17310;SDS011;8773;43.300;0.394;2023-02-28T06:13:43;6.23;;;5.73;;
17310;SDS011;8773;43.300;0.394;2023-02-28T06:16:11;6.80;;;6.30;;
17310;SDS011;8773;43.300;0.394;2023-02-28T06:18:41;6.33;;;5.90;;
17310;SDS011;8773;43.300;0.394;2023-02-28T06:21:09;6.30;;;5.93;;
17310;SDS011;8773;43.300;0.394;2023-02-28T06:23:37;6.63;;;6.23;;
17310;SDS011;8773;43.300;0.394;2023-02-28T06:26:05;7.10;;;6.60;;
17310;SDS011;8773;43.300;0.394;2023-02-28T06:28:33;7.30;;;6.80;;
17310;SDS011;8773;43.300;0.394;2023-02-28T06:31:05;7.73;;;7.17;;
17310;SDS011;8773;43.300;0.394;2023-02-28T06:33:35;8.43;;;7.70;;
17310;SDS011;8773;43.300;0.394;2023-02-28T06:36:05;8.10;;;7.40;;
17310;SDS011;8773;43.300;0.394;2023-02-28T06:38:35;8.53;;;7.87;;
17310;SDS011;8773;43.300;0.394;2023-02-28T06:41:04;8.40;;;7.63;;
17310;SDS011;8773;43.300;0.394;2023-02-28T06:43:34;8.57;;;7.80;;
17310;SDS011;8773;43.300;0.394;2023-02-28T06:46:05;8.47;;;7.87;;
17310;SDS011;8773;43.300;0.394;2023-02-28T06:48:35;8.80;;;8.00;;
17310;SDS011;8773;43.300;0.394;2023-02-28T06:51:06;8.10;;;7.43;;
17310;SDS011;8773;43.300;0.394;2023-02-28T06:53:36;7.80;;;7.10;;
17310;SDS011;8773;43.300;0.394;2023-02-28T06:56:06;8.00;;;7.37;;
17310;SDS011;8773;43.300;0.394;2023-02-28T06:58:36;8.03;;;7.40;;
17310;SDS011;8773;43.300;0.394;2023-02-28T07:01:05;7.60;;;7.00;;
17310;SDS011;8773;43.300;0.394;2023-02-28T07:03:34;7.47;;;6.97;;
17310;SDS011;8773;43.300;0.394;2023-02-28T07:06:05;8.83;;;8.10;;
17310;SDS011;8773;43.300;0.394;2023-02-28T07:08:34;8.03;;;7.33;;
17310;SDS011;8773;43.300;0.394;2023-02-28T07:11:02;7.90;;;7.10;;
17310;SDS011;8773;43.300;0.394;2023-02-28T07:13:31;7.87;;;7.07;;
17310;SDS011;8773;43.300;0.394;2023-02-28T07:16:00;7.33;;;6.73;;
17310;SDS011;8773;43.300;0.394;2023-02-28T07:18:29;8.27;;;7.57;;
17310;SDS011;8773;43.300;0.394;2023-02-28T07:20:57;8.37;;;7.60;;
17310;SDS011;8773;43.300;0.394;2023-02-28T07:23:27;7.33;;;6.83;;
17310;SDS011;8773;43.300;0.394;2023-02-28T07:25:55;7.70;;;6.97;;
17310;SDS011;8773;43.300;0.394;2023-02-28T07:28:23;7.07;;;6.57;;
17310;SDS011;8773;43.300;0.394;2023-02-28T07:30:51;7.90;;;7.27;;
17310;SDS011;8773;43.300;0.394;2023-02-28T07:33:19;6.90;;;6.50;;
17310;SDS011;8773;43.300;0.394;2023-02-28T07:35:47;7.00;;;6.50;;
17310;SDS011;8773;43.300;0.394;2023-02-28T07:38:15;7.20;;;6.60;;
17310;SDS011;8773;43.300;0.394;2023-02-28T07:40:45;7.57;;;6.90;;
17310;SDS011;8773;43.300;0.394;2023-02-28T07:43:13;5.90;;;5.40;;
17310;SDS011;8773;43.300;0.394;2023-02-28T07:45:41;6.60;;;6.00;;
17310;SDS011;8773;43.300;0.394;2023-02-28T07:48:09;5.90;;;5.50;;
17310;SDS011;8773;43.300;0.394;2023-02-28T07:50:38;5.23;;;4.93;;
17310;SDS011;8773;43.300;0.394;2023-02-28T07:53:06;5.27;;;4.97;;
17310;SDS011;8773;43.300;0.394;2023-02-28T07:55:34;5.73;;;4.93;;
17310;SDS011;8773;43.300;0.394;2023-02-28T07:58:03;5.30;;;5.00;;
17310;SDS011;8773;43.300;0.394;2023-02-28T08:00:32;4.80;;;4.50;;
17310;SDS011;8773;43.300;0.394;2023-02-28T08:03:00;5.13;;;4.73;;
17310;SDS011;8773;43.300;0.394;2023-02-28T08:05:28;4.97;;;4.50;;
17310;SDS011;8773;43.300;0.394;2023-02-28T08:07:57;5.33;;;4.83;;
17310;SDS011;8773;43.300;0.394;2023-02-28T08:10:25;5.83;;;5.43;;
17310;SDS011;8773;43.300;0.394;2023-02-28T08:12:53;5.23;;;4.83;;
17310;SDS011;8773;43.300;0.394;2023-02-28T08:17:51;4.57;;;4.27;;
17310;SDS011;8773;43.300;0.394;2023-02-28T08:20:19;5.10;;;4.70;;
17310;SDS011;8773;43.300;0.394;2023-02-28T08:22:47;5.53;;;5.13;;
17310;SDS011;8773;43.300;0.394;2023-02-28T08:25:16;5.27;;;4.97;;
17310;SDS011;8773;43.300;0.394;2023-02-28T08:27:44;5.30;;;5.00;;
17310;SDS011;8773;43.300;0.394;2023-02-28T08:30:12;4.40;;;4.20;;
17310;SDS011;8773;43.300;0.394;2023-02-28T08:32:41;4.90;;;4.50;;
17310;SDS011;8773;43.300;0.394;2023-02-28T08:35:11;4.93;;;4.53;;
17310;SDS011;8773;43.300;0.394;2023-02-28T08:37:39;5.30;;;4.90;;
17310;SDS011;8773;43.300;0.394;2023-02-28T08:40:08;4.90;;;4.70;;
17310;SDS011;8773;43.300;0.394;2023-02-28T08:42:37;5.20;;;4.70;;
17310;SDS011;8773;43.300;0.394;2023-02-28T08:45:06;5.07;;;4.80;;
17310;SDS011;8773;43.300;0.394;2023-02-28T08:47:34;5.30;;;5.00;;
17310;SDS011;8773;43.300;0.394;2023-02-28T08:50:03;4.60;;;4.33;;
17310;SDS011;8773;43.300;0.394;2023-02-28T08:52:36;5.40;;;5.10;;
17310;SDS011;8773;43.300;0.394;2023-02-28T08:55:04;5.40;;;5.10;;
17310;SDS011;8773;43.300;0.394;2023-02-28T08:57:33;5.23;;;4.90;;
17310;SDS011;8773;43.300;0.394;2023-02-28T09:00:02;5.07;;;4.77;;
17310;SDS011;8773;43.300;0.394;2023-02-28T09:02:31;5.10;;;4.70;;
17310;SDS011;8773;43.300;0.394;2023-02-28T09:04:59;4.50;;;4.30;;
17310;SDS011;8773;43.300;0.394;2023-02-28T09:07:27;4.67;;;4.47;;
17310;SDS011;8773;43.300;0.394;2023-02-28T09:09:56;5.00;;;4.70;;
17310;SDS011;8773;43.300;0.394;2023-02-28T09:12:25;4.90;;;4.50;;
17310;SDS011;8773;43.300;0.394;2023-02-28T09:14:54;5.13;;;4.73;;
17310;SDS011;8773;43.300;0.394;2023-02-28T09:17:22;4.73;;;4.43;;
17310;SDS011;8773;43.300;0.394;2023-02-28T09:19:56;4.63;;;4.23;;
17310;SDS011;8773;43.300;0.394;2023-02-28T09:22:25;5.00;;;4.60;;
17310;SDS011;8773;43.300;0.394;2023-02-28T09:24:53;4.43;;;4.23;;
17310;SDS011;8773;43.300;0.394;2023-02-28T09:27:22;4.73;;;4.53;;
17310;SDS011;8773;43.300;0.394;2023-02-28T09:29:51;4.73;;;4.37;;
17310;SDS011;8773;43.300;0.394;2023-02-28T09:32:19;5.17;;;4.77;;
17310;SDS011;8773;43.300;0.394;2023-02-28T09:34:47;4.83;;;4.53;;
17310;SDS011;8773;43.300;0.394;2023-02-28T09:37:15;5.13;;;4.70;;
17310;SDS011;8773;43.300;0.394;2023-02-28T09:39:43;4.63;;;4.33;;
17310;SDS011;8773;43.300;0.394;2023-02-28T09:42:13;4.63;;;4.43;;
17310;SDS011;8773;43.300;0.394;2023-02-28T09:44:51;5.47;;;5.07;;
17310;SDS011;8773;43.300;0.394;2023-02-28T09:47:21;5.57;;;5.10;;
17310;SDS011;8773;43.300;0.394;2023-02-28T09:50:03;5.50;;;5.00;;
17310;SDS011;8773;43.300;0.394;2023-02-28T09:52:39;5.87;;;5.47;;
17310;SDS011;8773;43.300;0.394;2023-02-28T09:55:16;5.57;;;5.17;;
17310;SDS011;8773;43.300;0.394;2023-02-28T09:57:47;6.00;;;5.60;;
17310;SDS011;8773;43.300;0.394;2023-02-28T10:00:21;5.87;;;5.47;;
17310;SDS011;8773;43.300;0.394;2023-02-28T10:02:57;6.27;;;5.77;;
17310;SDS011;8773;43.300;0.394;2023-02-28T10:05:35;5.73;;;5.43;;
17310;SDS011;8773;43.300;0.394;2023-02-28T10:08:11;5.97;;;5.57;;
17310;SDS011;8773;43.300;0.394;2023-02-28T10:10:44;4.93;;;4.57;;
17310;SDS011;8773;43.300;0.394;2023-02-28T10:13:17;4.97;;;4.50;;
17310;SDS011;8773;43.300;0.394;2023-02-28T10:15:54;5.27;;;4.80;;
17310;SDS011;8773;43.300;0.394;2023-02-28T10:18:26;4.70;;;4.40;;
17310;SDS011;8773;43.300;0.394;2023-02-28T10:21:09;4.90;;;4.50;;
17310;SDS011;8773;43.300;0.394;2023-02-28T10:23:48;4.93;;;4.53;;
17310;SDS011;8773;43.300;0.394;2023-02-28T10:26:17;4.97;;;4.60;;
17310;SDS011;8773;43.300;0.394;2023-02-28T10:28:46;6.80;;;5.43;;
17310;SDS011;8773;43.300;0.394;2023-02-28T10:31:19;5.10;;;4.70;;
17310;SDS011;8773;43.300;0.394;2023-02-28T10:33:50;6.93;;;4.93;;
17310;SDS011;8773;43.300;0.394;2023-02-28T10:36:19;4.67;;;4.37;;
17310;SDS011;8773;43.300;0.394;2023-02-28T10:38:48;5.30;;;4.90;;
17310;SDS011;8773;43.300;0.394;2023-02-28T10:41:26;4.80;;;4.40;;
17310;SDS011;8773;43.300;0.394;2023-02-28T10:44:16;6.20;;;5.60;;
17310;SDS011;8773;43.300;0.394;2023-02-28T10:46:49;5.17;;;4.77;;
17310;SDS011;8773;43.300;0.394;2023-02-28T10:49:20;5.20;;;4.80;;
17310;SDS011;8773;43.300;0.394;2023-02-28T10:51:51;4.90;;;4.50;;
17310;SDS011;8773;43.300;0.394;2023-02-28T10:54:22;4.93;;;4.53;;
17310;SDS011;8773;43.300;0.394;2023-02-28T10:59:45;4.80;;;4.50;;
17310;SDS011;8773;43.300;0.394;2023-02-28T11:02:32;5.10;;;4.80;;
17310;SDS011;8773;43.300;0.394;2023-02-28T11:07:52;4.53;;;4.30;;
17310;SDS011;8773;43.300;0.394;2023-02-28T11:10:25;4.80;;;4.50;;
17310;SDS011;8773;43.300;0.394;2023-02-28T11:12:58;5.13;;;4.63;;
17310;SDS011;8773;43.300;0.394;2023-02-28T11:15:27;5.30;;;4.90;;
17310;SDS011;8773;43.300;0.394;2023-02-28T11:18:04;5.03;;;4.77;;
17310;SDS011;8773;43.300;0.394;2023-02-28T11:20:47;4.63;;;4.33;;
17310;SDS011;8773;43.300;0.394;2023-02-28T11:23:17;5.00;;;4.70;;
17310;SDS011;8773;43.300;0.394;2023-02-28T11:25:47;5.10;;;4.70;;
17310;SDS011;8773;43.300;0.394;2023-02-28T11:28:24;5.17;;;4.67;;
17310;SDS011;8773;43.300;0.394;2023-02-28T11:31:03;5.00;;;4.60;;
17310;SDS011;8773;43.300;0.394;2023-02-28T11:33:40;5.80;;;5.30;;
17310;SDS011;8773;43.300;0.394;2023-02-28T11:36:12;5.83;;;5.43;;
17310;SDS011;8773;43.300;0.394;2023-02-28T11:38:42;5.60;;;5.13;;
17310;SDS011;8773;43.300;0.394;2023-02-28T11:41:20;5.53;;;5.23;;
17310;SDS011;8773;43.300;0.394;2023-02-28T11:44:07;5.30;;;4.90;;
17310;SDS011;8773;43.300;0.394;2023-02-28T11:46:46;5.70;;;5.30;;
17310;SDS011;8773;43.300;0.394;2023-02-28T11:49:23;5.47;;;5.13;;
17310;SDS011;8773;43.300;0.394;2023-02-28T11:52:01;5.07;;;4.67;;
17310;SDS011;8773;43.300;0.394;2023-02-28T11:54:39;5.37;;;4.97;;
17310;SDS011;8773;43.300;0.394;2023-02-28T11:57:26;4.90;;;4.70;;
17310;SDS011;8773;43.300;0.394;2023-02-28T12:00:23;5.03;;;4.77;;
17310;SDS011;8773;43.300;0.394;2023-02-28T12:02:59;4.93;;;4.60;;
17310;SDS011;8773;43.300;0.394;2023-02-28T12:05:41;5.17;;;4.80;;
17310;SDS011;8773;43.300;0.394;2023-02-28T12:08:18;5.87;;;5.53;;
17310;SDS011;8773;43.300;0.394;2023-02-28T12:11:02;5.50;;;5.10;;
17310;SDS011;8773;43.300;0.394;2023-02-28T12:13:39;6.23;;;5.73;;
17310;SDS011;8773;43.300;0.394;2023-02-28T12:16:25;6.13;;;5.73;;
17310;SDS011;8773;43.300;0.394;2023-02-28T12:19:06;5.27;;;4.97;;
17310;SDS011;8773;43.300;0.394;2023-02-28T12:21:48;5.87;;;5.37;;
17310;SDS011;8773;43.300;0.394;2023-02-28T12:24:48;5.50;;;5.13;;
17310;SDS011;8773;43.300;0.394;2023-02-28T12:27:28;5.93;;;5.53;;
17310;SDS011;8773;43.300;0.394;2023-02-28T12:30:00;5.37;;;5.00;;
17310;SDS011;8773;43.300;0.394;2023-02-28T12:32:34;5.03;;;4.73;;
17310;SDS011;8773;43.300;0.394;2023-02-28T12:35:11;5.27;;;4.97;;
17310;SDS011;8773;43.300;0.394;2023-02-28T12:37:44;5.50;;;5.00;;
17310;SDS011;8773;43.300;0.394;2023-02-28T12:40:19;5.10;;;4.80;;
17310;SDS011;8773;43.300;0.394;2023-02-28T12:42:50;4.90;;;4.70;;
17310;SDS011;8773;43.300;0.394;2023-02-28T12:45:25;4.53;;;4.33;;
17310;SDS011;8773;43.300;0.394;2023-02-28T12:47:59;4.93;;;4.63;;
17310;SDS011;8773;43.300;0.394;2023-02-28T12:50:31;5.30;;;4.90;;
17310;SDS011;8773;43.300;0.394;2023-02-28T12:53:02;5.03;;;4.53;;
17310;SDS011;8773;43.300;0.394;2023-02-28T12:55:35;5.13;;;4.83;;
17310;SDS011;8773;43.300;0.394;2023-02-28T12:58:11;5.87;;;5.47;;
17310;SDS011;8773;43.300;0.394;2023-02-28T13:00:49;4.27;;;4.07;;
17310;SDS011;8773;43.300;0.394;2023-02-28T13:03:36;4.67;;;4.47;;
17310;SDS011;8773;43.300;0.394;2023-02-28T13:06:41;5.10;;;4.80;;
17310;SDS011;8773;43.300;0.394;2023-02-28T13:09:26;4.43;;;4.23;;
17310;SDS011;8773;43.300;0.394;2023-02-28T13:11:56;4.40;;;4.20;;
17310;SDS011;8773;43.300;0.394;2023-02-28T13:14:26;4.70;;;4.40;;
17310;SDS011;8773;43.300;0.394;2023-02-28T13:17:01;5.37;;;4.90;;
17310;SDS011;8773;43.300;0.394;2023-02-28T13:19:38;4.50;;;4.20;;
17310;SDS011;8773;43.300;0.394;2023-02-28T13:22:16;4.40;;;4.10;;
17310;SDS011;8773;43.300;0.394;2023-02-28T13:24:50;4.37;;;4.07;;
17310;SDS011;8773;43.300;0.394;2023-02-28T13:27:23;4.73;;;4.33;;
17310;SDS011;8773;43.300;0.394;2023-02-28T13:30:00;4.60;;;4.30;;
17310;SDS011;8773;43.300;0.394;2023-02-28T13:32:30;3.70;;;3.60;;
17310;SDS011;8773;43.300;0.394;2023-02-28T13:44:12;4.47;;;4.17;;
17310;SDS011;8773;43.300;0.394;2023-02-28T13:49:47;4.57;;;4.17;;
17310;SDS011;8773;43.300;0.394;2023-02-28T13:52:17;4.13;;;3.83;;
17310;SDS011;8773;43.300;0.394;2023-02-28T13:57:58;4.47;;;4.27;;
17310;SDS011;8773;43.300;0.394;2023-02-28T14:00:59;4.43;;;4.10;;
17310;SDS011;8773;43.300;0.394;2023-02-28T14:03:44;4.30;;;4.00;;
17310;SDS011;8773;43.300;0.394;2023-02-28T14:06:26;4.57;;;4.27;;
17310;SDS011;8773;43.300;0.394;2023-02-28T14:08:59;4.37;;;3.97;;
17310;SDS011;8773;43.300;0.394;2023-02-28T14:11:31;4.23;;;3.93;;
17310;SDS011;8773;43.300;0.394;2023-02-28T14:14:01;4.70;;;4.30;;
17310;SDS011;8773;43.300;0.394;2023-02-28T14:16:36;4.40;;;3.93;;
17310;SDS011;8773;43.300;0.394;2023-02-28T14:19:10;3.80;;;3.60;;
17310;SDS011;8773;43.300;0.394;2023-02-28T14:21:47;4.50;;;4.20;;
17310;SDS011;8773;43.300;0.394;2023-02-28T14:24:34;4.30;;;4.10;;
17310;SDS011;8773;43.300;0.394;2023-02-28T14:27:24;3.67;;;3.57;;
17310;SDS011;8773;43.300;0.394;2023-02-28T14:30:13;4.10;;;3.80;;
17310;SDS011;8773;43.300;0.394;2023-02-28T14:33:04;3.90;;;3.70;;
17310;SDS011;8773;43.300;0.394;2023-02-28T14:35:48;4.07;;;3.83;;
17310;SDS011;8773;43.300;0.394;2023-02-28T14:38:25;4.27;;;3.80;;
17310;SDS011;8773;43.300;0.394;2023-02-28T14:40:56;4.00;;;3.70;;
17310;SDS011;8773;43.300;0.394;2023-02-28T14:43:28;3.80;;;3.60;;
17310;SDS011;8773;43.300;0.394;2023-02-28T14:45:56;4.50;;;3.97;;
17310;SDS011;8773;43.300;0.394;2023-02-28T14:48:28;3.70;;;3.50;;
17310;SDS011;8773;43.300;0.394;2023-02-28T14:50:57;4.50;;;4.20;;
17310;SDS011;8773;43.300;0.394;2023-02-28T14:53:28;4.07;;;3.77;;
17310;SDS011;8773;43.300;0.394;2023-02-28T14:55:57;4.30;;;3.87;;
17310;SDS011;8773;43.300;0.394;2023-02-28T14:58:27;4.30;;;4.10;;
17310;SDS011;8773;43.300;0.394;2023-02-28T15:00:56;4.00;;;3.67;;
17310;SDS011;8773;43.300;0.394;2023-02-28T15:03:30;4.23;;;3.83;;
17310;SDS011;8773;43.300;0.394;2023-02-28T15:05:59;5.77;;;4.73;;
17310;SDS011;8773;43.300;0.394;2023-02-28T15:08:29;5.00;;;4.60;;
17310;SDS011;8773;43.300;0.394;2023-02-28T15:11:03;5.13;;;4.63;;
17310;SDS011;8773;43.300;0.394;2023-02-28T15:13:36;4.73;;;4.43;;
17310;SDS011;8773;43.300;0.394;2023-02-28T15:16:08;4.87;;;4.57;;
17310;SDS011;8773;43.300;0.394;2023-02-28T15:18:43;5.33;;;4.90;;
17310;SDS011;8773;43.300;0.394;2023-02-28T15:21:16;4.70;;;4.50;;
17310;SDS011;8773;43.300;0.394;2023-02-28T15:23:52;4.43;;;4.13;;
17310;SDS011;8773;43.300;0.394;2023-02-28T15:26:25;4.43;;;4.13;;
17310;SDS011;8773;43.300;0.394;2023-02-28T15:28:58;4.37;;;4.10;;
17310;SDS011;8773;43.300;0.394;2023-02-28T15:31:28;3.80;;;3.60;;
17310;SDS011;8773;43.300;0.394;2023-02-28T15:34:15;4.40;;;4.03;;
17310;SDS011;8773;43.300;0.394;2023-02-28T15:36:48;3.70;;;3.50;;
17310;SDS011;8773;43.300;0.394;2023-02-28T15:39:18;4.30;;;3.90;;
17310;SDS011;8773;43.300;0.394;2023-02-28T15:41:47;4.40;;;4.10;;
17310;SDS011;8773;43.300;0.394;2023-02-28T15:44:26;4.00;;;3.70;;
17310;SDS011;8773;43.300;0.394;2023-02-28T15:46:57;5.23;;;4.73;;
17310;SDS011;8773;43.300;0.394;2023-02-28T15:49:31;4.07;;;3.87;;
17310;SDS011;8773;43.300;0.394;2023-02-28T15:52:12;3.97;;;3.67;;
17310;SDS011;8773;43.300;0.394;2023-02-28T15:54:43;4.50;;;4.13;;
17310;SDS011;8773;43.300;0.394;2023-02-28T15:57:13;4.47;;;4.27;;
17310;SDS011;8773;43.300;0.394;2023-02-28T15:59:48;4.13;;;3.83;;